Time;durP1;ratioP1;P1;durP2;ratioP2;P2;SDS_P1;SDS_P2;PMS_P1;PMS_P2;Temp;Humidity;BMP_temperature;BMP_pressure;BME280_temperature;BME280_humidity;BME280_pressure;Samples;Min_cycle;Max_cycle;Signal;HPM_P1;HPM_P2
2023/07/05 00:01:22;;;;;;;6.88;4.22;;;;;;;;;;4952372;28;20045;-38
2023/07/05 00:03:47;;;;;;;11.93;4.35;;;;;;;;;;4976401;28;20026;-38
2023/07/05 00:06:13;;;;;;;7.60;3.85;;;;;;;;;;4972367;28;20396;-38
2023/07/05 00:08:40;;;;;;;10.50;3.97;;;;;;;;;;4975164;28;20469;-39
2023/07/05 00:11:06;;;;;;;8.10;4.05;;;;;;;;;;4975122;28;20065;-39
2023/07/05 00:13:31;;;;;;;7.28;4.03;;;;;;;;;;4972121;28;20026;-38
2023/07/05 00:15:59;;;;;;;9.50;4.63;;;;;;;;;;4970868;28;20042;-39
2023/07/05 00:18:24;;;;;;;11.25;3.95;;;;;;;;;;4992626;28;20423;-42
2023/07/05 00:20:50;;;;;;;9.25;4.07;;;;;;;;;;4971537;28;20031;-38
2023/07/05 00:23:15;;;;;;;10.30;4.43;;;;;;;;;;4961768;28;20030;-37
2023/07/05 00:25:40;;;;;;;6.85;3.50;;;;;;;;;;4971451;28;20117;-39
2023/07/05 00:28:06;;;;;;;9.63;4.70;;;;;;;;;;4958293;28;20033;-37
2023/07/05 00:30:31;;;;;;;8.55;3.50;;;;;;;;;;4960813;28;20041;-38
2023/07/05 00:32:57;;;;;;;7.65;3.60;;;;;;;;;;4957259;28;20377;-38
2023/07/05 00:35:22;;;;;;;10.70;4.35;;;;;;;;;;4974614;28;20030;-38
2023/07/05 00:37:47;;;;;;;12.30;4.28;;;;;;;;;;4975113;28;20023;-42
2023/07/05 00:40:13;;;;;;;9.27;4.18;;;;;;;;;;4992657;28;20469;-40
2023/07/05 00:42:39;;;;;;;7.07;3.90;;;;;;;;;;4967442;28;20038;-37
2023/07/05 00:45:10;;;;;;;8.60;3.85;;;;;;;;;;4955448;28;20037;-38
2023/07/05 00:47:36;;;;;;;10.00;4.20;;;;;;;;;;4973569;28;20046;-39
2023/07/05 00:50:03;;;;;;;8.15;4.15;;;;;;;;;;4972054;28;20053;-40
2023/07/05 00:52:29;;;;;;;6.97;3.88;;;;;;;;;;4980161;28;20476;-38
2023/07/05 00:54:55;;;;;;;9.00;4.70;;;;;;;;;;4953115;28;20044;-38
2023/07/05 00:57:25;;;;;;;9.10;3.55;;;;;;;;;;4987607;28;20563;-37
2023/07/05 00:59:59;;;;;;;6.68;3.38;;;;;;;;;;4989937;28;20042;-38
2023/07/05 01:02:25;;;;;;;8.02;3.92;;;;;;;;;;4990121;28;20497;-38
2023/07/05 01:04:50;;;;;;;8.20;3.75;;;;;;;;;;4987604;28;20615;-39
2023/07/05 01:07:16;;;;;;;8.98;3.88;;;;;;;;;;4989972;28;20018;-39
2023/07/05 01:09:41;;;;;;;11.32;5.22;;;;;;;;;;4967852;28;20057;-40
2023/07/05 01:12:33;;;;;;;10.48;4.35;;;;;;;;;;4964977;28;20404;-42
2023/07/05 01:15:13;;;;;;;9.43;3.92;;;;;;;;;;4968813;28;20066;-38
2023/07/05 01:17:41;;;;;;;8.48;3.60;;;;;;;;;;4974005;28;20491;-38
2023/07/05 01:20:25;;;;;;;7.18;3.50;;;;;;;;;;4991221;28;20038;-38
2023/07/05 01:23:09;;;;;;;10.77;4.05;;;;;;;;;;4969569;28;20037;-38
2023/07/05 01:25:55;;;;;;;7.32;3.47;;;;;;;;;;4966511;28;20050;-38
2023/07/05 01:28:37;;;;;;;6.00;3.33;;;;;;;;;;4972767;28;20033;-41
2023/07/05 01:31:02;;;;;;;;;;;;;;;;;;4967450;28;20018;-40
2023/07/05 01:33:36;;;;;;;7.50;3.57;;;;;;;;;;4991299;28;19925;-38
2023/07/05 01:36:02;;;;;;;8.52;3.92;;;;;;;;;;4973036;28;20038;-38
2023/07/05 01:38:27;;;;;;;9.05;3.50;;;;;;;;;;4954155;28;20030;-42
2023/07/05 01:40:59;;;;;;;6.72;2.33;;;;;;;;;;4947793;28;20800;-39
2023/07/05 01:43:25;;;;;;;10.03;4.10;;;;;;;;;;4965313;28;20492;-38
2023/07/05 01:46:03;;;;;;;7.63;4.18;;;;;;;;;;4967800;28;20471;-38
2023/07/05 01:48:32;;;;;;;9.52;5.63;;;;;;;;;;4986744;28;20017;-38
2023/07/05 01:51:01;;;;;;;6.95;4.47;;;;;;;;;;4989926;28;20037;-38
2023/07/05 01:53:29;;;;;;;11.88;5.70;;;;;;;;;;4986174;28;20108;-38
2023/07/05 01:55:54;;;;;;;9.70;4.38;;;;;;;;;;4969300;28;20076;-38
2023/07/05 01:58:22;;;;;;;9.53;3.47;;;;;;;;;;4968425;28;20117;-38
2023/07/05 02:00:48;;;;;;;7.28;2.72;;;;;;;;;;4979608;28;20317;-41
2023/07/05 02:03:16;;;;;;;7.10;4.15;;;;;;;;;;4984702;28;20023;-39
2023/07/05 02:05:41;;;;;;;8.57;5.15;;;;;;;;;;4970129;28;20400;-39
2023/07/05 02:08:07;;;;;;;7.10;4.70;;;;;;;;;;4984088;28;20508;-38
2023/07/05 02:10:33;;;;;;;8.52;4.05;;;;;;;;;;4965285;28;20018;-39
2023/07/05 02:13:00;;;;;;;10.85;4.60;;;;;;;;;;4979134;28;20066;-38
2023/07/05 02:15:27;;;;;;;7.63;3.78;;;;;;;;;;4954965;28;20030;-38
2023/07/05 02:17:53;;;;;;;7.28;4.38;;;;;;;;;;4986995;28;20058;-38
2023/07/05 02:20:19;;;;;;;9.85;4.25;;;;;;;;;;4971221;28;20050;-37
2023/07/05 02:22:44;;;;;;;10.23;4.10;;;;;;;;;;4964754;28;20681;-38
2023/07/05 02:25:09;;;;;;;14.48;4.10;;;;;;;;;;4952474;28;20076;-38
2023/07/05 02:27:35;;;;;;;7.85;3.70;;;;;;;;;;4971644;28;20018;-39
2023/07/05 02:30:01;;;;;;;9.88;4.78;;;;;;;;;;4989463;28;20033;-37
2023/07/05 02:32:26;;;;;;;8.57;4.00;;;;;;;;;;4971763;28;20033;-38
2023/07/05 02:34:52;;;;;;;6.75;4.47;;;;;;;;;;4971442;28;20023;-37
2023/07/05 02:37:18;;;;;;;5.60;3.65;;;;;;;;;;4969582;28;20649;-38
2023/07/05 02:39:43;;;;;;;13.48;4.40;;;;;;;;;;4985691;28;20084;-38
2023/07/05 02:42:09;;;;;;;7.75;4.20;;;;;;;;;;4987734;28;20492;-37
2023/07/05 02:44:34;;;;;;;10.10;4.05;;;;;;;;;;4975521;28;20062;-38
2023/07/05 02:47:00;;;;;;;7.85;4.35;;;;;;;;;;4975213;28;20023;-38
2023/07/05 02:49:26;;;;;;;8.68;4.35;;;;;;;;;;4969595;28;20030;-38
2023/07/05 02:51:52;;;;;;;8.48;4.35;;;;;;;;;;4988077;28;20396;-37
2023/07/05 02:54:17;;;;;;;11.18;5.25;;;;;;;;;;4988796;28;20335;-38
2023/07/05 02:56:42;;;;;;;8.25;4.68;;;;;;;;;;4955769;28;20038;-38
2023/07/05 02:59:08;;;;;;;10.23;4.35;;;;;;;;;;4972187;28;20032;-39
2023/07/05 03:01:33;;;;;;;6.30;4.07;;;;;;;;;;4971827;28;20018;-38
2023/07/05 03:03:59;;;;;;;7.50;3.88;;;;;;;;;;4972644;28;20479;-39
2023/07/05 03:06:24;;;;;;;9.35;4.15;;;;;;;;;;4987836;28;20027;-38
2023/07/05 03:08:50;;;;;;;8.32;3.97;;;;;;;;;;4970333;28;20034;-38
2023/07/05 03:11:15;;;;;;;11.63;4.80;;;;;;;;;;4957436;28;20025;-38
2023/07/05 03:13:41;;;;;;;9.40;3.83;;;;;;;;;;4970068;28;20177;-38
2023/07/05 03:16:07;;;;;;;8.43;3.92;;;;;;;;;;4957056;28;20076;-37
2023/07/05 03:18:32;;;;;;;5.90;4.57;;;;;;;;;;4988198;28;20022;-39
2023/07/05 03:20:58;;;;;;;9.00;4.70;;;;;;;;;;4959629;28;20084;-40
2023/07/05 03:23:23;;;;;;;18.85;10.30;;;;;;;;;;4966527;28;20120;-38
2023/07/05 03:25:56;;;;;;;38.05;19.67;;;;;;;;;;4981187;28;20073;-39
2023/07/05 03:28:22;;;;;;;15.55;9.07;;;;;;;;;;4970014;28;20033;-38
2023/07/05 03:30:55;;;;;;;10.75;4.82;;;;;;;;;;4986416;28;20025;-39
2023/07/05 03:33:20;;;;;;;7.63;3.85;;;;;;;;;;4970857;28;20026;-38
2023/07/05 03:36:03;;;;;;;8.45;3.80;;;;;;;;;;4968773;28;20053;-39
2023/07/05 03:38:29;;;;;;;8.63;3.65;;;;;;;;;;4994902;28;20037;-37
2023/07/05 03:40:57;;;;;;;13.52;4.80;;;;;;;;;;4989025;28;20026;-38
2023/07/05 03:43:23;;;;;;;14.02;6.03;;;;;;;;;;4976294;28;20113;-37
2023/07/05 03:45:48;;;;;;;10.95;4.80;;;;;;;;;;4975905;28;20211;-38
2023/07/05 03:48:14;;;;;;;9.93;5.05;;;;;;;;;;4973266;28;20027;-39
2023/07/05 03:50:39;;;;;;;10.90;4.22;;;;;;;;;;4974679;28;20108;-37
2023/07/05 03:53:04;;;;;;;14.30;4.95;;;;;;;;;;4959866;28;20109;-37
2023/07/05 03:55:33;;;;;;;23.17;10.45;;;;;;;;;;4974675;28;20026;-40
2023/07/05 03:57:59;;;;;;;41.42;20.50;;;;;;;;;;4971671;28;20037;-41
2023/07/05 04:00:24;;;;;;;22.10;11.75;;;;;;;;;;4991818;28;20026;-38
2023/07/05 04:02:49;;;;;;;10.93;5.03;;;;;;;;;;4994496;28;21052;-38
2023/07/05 04:05:15;;;;;;;10.60;4.68;;;;;;;;;;4982529;28;20029;-38
2023/07/05 04:07:40;;;;;;;11.25;4.10;;;;;;;;;;4955485;28;20838;-39
2023/07/05 04:10:06;;;;;;;10.07;3.63;;;;;;;;;;4969762;28;20029;-38
2023/07/05 04:12:31;;;;;;;8.85;4.15;;;;;;;;;;4970591;28;20092;-43
2023/07/05 04:14:57;;;;;;;8.68;3.65;;;;;;;;;;4988007;28;20061;-38
2023/07/05 04:17:22;;;;;;;10.05;4.13;;;;;;;;;;4987604;28;20391;-38
2023/07/05 04:19:47;;;;;;;36.33;17.98;;;;;;;;;;4972842;28;20038;-39
2023/07/05 04:22:13;;;;;;;14.60;4.90;;;;;;;;;;4975470;28;20025;-38
2023/07/05 04:24:38;;;;;;;6.25;4.07;;;;;;;;;;4974723;28;20030;-37
2023/07/05 04:27:04;;;;;;;9.93;4.00;;;;;;;;;;4950424;28;20031;-38
2023/07/05 04:29:29;;;;;;;7.50;3.83;;;;;;;;;;4974098;28;20030;-39
2023/07/05 04:31:54;;;;;;;7.07;3.80;;;;;;;;;;4973984;28;20025;-38
2023/07/05 04:34:20;;;;;;;7.72;3.50;;;;;;;;;;4971666;28;20022;-38
2023/07/05 04:36:45;;;;;;;6.25;3.80;;;;;;;;;;4972916;28;20108;-39
2023/07/05 04:39:10;;;;;;;9.00;3.80;;;;;;;;;;4974710;28;20054;-38
2023/07/05 04:41:36;;;;;;;7.63;3.72;;;;;;;;;;4985128;28;20450;-38
2023/07/05 04:44:04;;;;;;;7.50;3.70;;;;;;;;;;4988874;28;20025;-38
2023/07/05 04:46:30;;;;;;;5.40;2.70;;;;;;;;;;4988419;28;20560;-41
2023/07/05 04:48:55;;;;;;;9.32;5.80;;;;;;;;;;4993249;28;20176;-38
2023/07/05 04:51:20;;;;;;;8.50;3.65;;;;;;;;;;4956694;28;20161;-38
2023/07/05 04:53:46;;;;;;;13.57;4.03;;;;;;;;;;4960893;28;20032;-38
2023/07/05 04:56:12;;;;;;;10.45;3.90;;;;;;;;;;4971230;28;20080;-38
2023/07/05 04:58:38;;;;;;;11.82;4.22;;;;;;;;;;4956554;28;20087;-39
2023/07/05 05:01:04;;;;;;;8.27;3.33;;;;;;;;;;4947907;28;20030;-38
2023/07/05 05:03:29;;;;;;;12.13;3.60;;;;;;;;;;4965199;28;20038;-39
2023/07/05 05:05:55;;;;;;;10.65;4.13;;;;;;;;;;4968087;28;20436;-38
2023/07/05 05:08:22;;;;;;;9.15;3.70;;;;;;;;;;4974319;28;20087;-38
2023/07/05 05:10:55;;;;;;;12.60;4.15;;;;;;;;;;4987489;28;20485;-38
2023/07/05 05:13:22;;;;;;;13.43;5.18;;;;;;;;;;4987306;28;20022;-40
2023/07/05 05:15:48;;;;;;;9.68;4.03;;;;;;;;;;4970457;28;20041;-41
2023/07/05 05:18:13;;;;;;;11.18;5.05;;;;;;;;;;4991625;28;20187;-41
2023/07/05 05:20:39;;;;;;;13.23;4.70;;;;;;;;;;4970018;28;20134;-41
2023/07/05 05:23:05;;;;;;;13.40;4.90;;;;;;;;;;4972346;28;20030;-41
2023/07/05 05:25:30;;;;;;;8.00;5.25;;;;;;;;;;4986601;28;20504;-40
2023/07/05 05:27:55;;;;;;;11.55;4.43;;;;;;;;;;4969299;28;20053;-40
2023/07/05 05:30:21;;;;;;;8.05;5.72;;;;;;;;;;4977663;28;20041;-41
2023/07/05 05:32:46;;;;;;;14.23;4.90;;;;;;;;;;4991317;28;20027;-42
2023/07/05 05:35:12;;;;;;;9.30;4.05;;;;;;;;;;4989826;28;20025;-41
2023/07/05 05:37:38;;;;;;;4.97;3.28;;;;;;;;;;4977433;28;20025;-41
2023/07/05 05:40:05;;;;;;;8.57;3.72;;;;;;;;;;4973677;28;20045;-41
2023/07/05 05:42:31;;;;;;;12.20;4.80;;;;;;;;;;4971033;28;20068;-41
2023/07/05 05:44:56;;;;;;;11.75;4.97;;;;;;;;;;4957402;28;20053;-41
2023/07/05 05:47:21;;;;;;;11.65;4.60;;;;;;;;;;4974191;28;20042;-41
2023/07/05 05:49:47;;;;;;;12.23;4.15;;;;;;;;;;5005089;23;20103;-37
2023/07/05 05:52:12;;;;;;;7.80;3.40;;;;;;;;;;5001027;28;20117;-36
2023/07/05 05:54:37;;;;;;;15.20;7.13;;;;;;;;;;5008978;28;20379;-36
2023/07/05 05:57:03;;;;;;;10.15;4.20;;;;;;;;;;5008973;28;20025;-36
2023/07/05 05:59:28;;;;;;;8.57;4.05;;;;;;;;;;4994932;28;20097;-36
2023/07/05 06:01:53;;;;;;;7.37;3.20;;;;;;;;;;4990511;28;20527;-37
2023/07/05 06:04:19;;;;;;;7.38;3.30;;;;;;;;;;4989681;28;20026;-36
2023/07/05 06:06:44;;;;;;;11.85;3.30;;;;;;;;;;4989334;28;20034;-36
2023/07/05 06:09:10;;;;;;;10.60;3.80;;;;;;;;;;4991073;28;20026;-36
2023/07/05 06:11:35;;;;;;;5.43;3.15;;;;;;;;;;4985962;28;20424;-36
2023/07/05 06:14:01;;;;;;;9.63;3.40;;;;;;;;;;4989637;28;20023;-37
2023/07/05 06:16:26;;;;;;;8.65;3.30;;;;;;;;;;4987424;28;20035;-36
2023/07/05 06:18:56;;;;;;;8.57;3.28;;;;;;;;;;4982916;28;20038;-37
2023/07/05 06:21:22;;;;;;;10.18;4.07;;;;;;;;;;4984962;28;20033;-38
2023/07/05 06:23:47;;;;;;;7.93;3.20;;;;;;;;;;4980668;28;20038;-37
2023/07/05 06:26:12;;;;;;;7.93;2.97;;;;;;;;;;4982493;28;20026;-34
2023/07/05 06:28:38;;;;;;;8.93;3.20;;;;;;;;;;4984572;28;20373;-36
2023/07/05 06:31:07;;;;;;;6.87;3.20;;;;;;;;;;4978443;28;20281;-36
2023/07/05 06:33:32;;;;;;;6.03;3.17;;;;;;;;;;4977755;28;20392;-36
2023/07/05 06:36:00;;;;;;;8.03;3.93;;;;;;;;;;4979582;28;20034;-36
2023/07/05 06:38:26;;;;;;;12.43;4.22;;;;;;;;;;4986994;28;20034;-35
2023/07/05 06:40:52;;;;;;;6.50;3.47;;;;;;;;;;4984904;28;20547;-35
2023/07/05 06:43:17;;;;;;;9.88;2.97;;;;;;;;;;4972937;28;20029;-35
2023/07/05 06:45:46;;;;;;;9.37;2.90;;;;;;;;;;4983240;28;20069;-36
2023/07/05 06:48:11;;;;;;;8.68;3.20;;;;;;;;;;4983301;28;20278;-35
2023/07/05 06:50:38;;;;;;;10.70;3.35;;;;;;;;;;4989011;28;20054;-36
2023/07/05 06:53:03;;;;;;;8.03;3.57;;;;;;;;;;4988800;28;20022;-35
2023/07/05 06:55:28;;;;;;;10.60;2.83;;;;;;;;;;4988817;28;20352;-35
2023/07/05 06:57:54;;;;;;;5.78;3.28;;;;;;;;;;4989759;28;20595;-35
2023/07/05 07:00:19;;;;;;;5.30;3.23;;;;;;;;;;4979615;28;20444;-35
2023/07/05 07:02:44;;;;;;;6.78;3.10;;;;;;;;;;4988905;28;20029;-36
2023/07/05 07:05:11;;;;;;;9.13;4.00;;;;;;;;;;4986453;28;20321;-37
2023/07/05 07:07:36;;;;;;;13.77;3.38;;;;;;;;;;4987140;28;20430;-35
2023/07/05 07:10:03;;;;;;;8.75;3.70;;;;;;;;;;4983325;28;20053;-35
2023/07/05 07:12:28;;;;;;;8.80;3.00;;;;;;;;;;4985897;28;20025;-36
2023/07/05 07:14:53;;;;;;;7.50;3.88;;;;;;;;;;4987824;28;20034;-35
2023/07/05 07:17:18;;;;;;;10.70;3.87;;;;;;;;;;4985412;28;20038;-35
2023/07/05 07:19:44;;;;;;;9.73;3.63;;;;;;;;;;4986457;28;20632;-36
2023/07/05 07:22:09;;;;;;;9.83;3.70;;;;;;;;;;4979495;28;20336;-35
2023/07/05 07:24:34;;;;;;;10.67;4.00;;;;;;;;;;4985112;28;20022;-35
2023/07/05 07:26:59;;;;;;;16.55;3.50;;;;;;;;;;4982429;28;20328;-35
2023/07/05 07:29:25;;;;;;;10.13;4.00;;;;;;;;;;4989712;28;20054;-35
2023/07/05 07:31:50;;;;;;;13.50;4.77;;;;;;;;;;4988489;28;20038;-37
2023/07/05 07:34:15;;;;;;;24.63;12.97;;;;;;;;;;4986866;28;20368;-35
2023/07/05 07:36:41;;;;;;;14.17;4.87;;;;;;;;;;4987404;28;20037;-35
2023/07/05 07:39:06;;;;;;;13.20;4.25;;;;;;;;;;4980529;28;20659;-37
2023/07/05 07:41:35;;;;;;;11.88;4.53;;;;;;;;;;4984269;28;20026;-35
2023/07/05 07:44:02;;;;;;;14.20;5.50;;;;;;;;;;4988672;28;20033;-35
2023/07/05 07:46:28;;;;;;;10.93;5.25;;;;;;;;;;4986667;28;20022;-35
2023/07/05 07:48:54;;;;;;;11.07;5.03;;;;;;;;;;4988011;28;20023;-35
2023/07/05 07:51:21;;;;;;;11.60;5.85;;;;;;;;;;4987064;28;20034;-35
2023/07/05 07:53:47;;;;;;;18.13;4.95;;;;;;;;;;4987191;28;20026;-35
2023/07/05 07:56:13;;;;;;;13.33;5.33;;;;;;;;;;4986482;28;20045;-35
2023/07/05 07:58:39;;;;;;;6.82;3.05;;;;;;;;;;4983422;28;20030;-35
2023/07/05 08:01:11;;;;;;;13.52;5.25;;;;;;;;;;4982026;28;20035;-35
2023/07/05 08:03:37;;;;;;;16.83;6.25;;;;;;;;;;4980213;28;20039;-36
2023/07/05 08:06:02;;;;;;;12.82;5.70;;;;;;;;;;4981857;28;20034;-36
2023/07/05 08:08:28;;;;;;;16.67;9.63;;;;;;;;;;4982991;28;20062;-36
2023/07/05 08:10:53;;;;;;;11.77;5.43;;;;;;;;;;4983304;28;20285;-36
2023/07/05 08:13:18;;;;;;;10.73;5.87;;;;;;;;;;4983765;28;20142;-37
2023/07/05 08:15:43;;;;;;;11.90;6.15;;;;;;;;;;4985048;28;20484;-38
2023/07/05 08:18:09;;;;;;;17.00;6.47;;;;;;;;;;4984913;28;20022;-36
2023/07/05 08:20:34;;;;;;;17.80;5.10;;;;;;;;;;4982613;28;20331;-36
2023/07/05 08:22:59;;;;;;;17.90;6.77;;;;;;;;;;4984700;28;20049;-37
2023/07/05 08:25:24;;;;;;;17.10;5.83;;;;;;;;;;4986989;28;20305;-37
2023/07/05 08:27:50;;;;;;;13.13;6.33;;;;;;;;;;4985897;28;20030;-35
2023/07/05 08:30:15;;;;;;;12.97;7.70;;;;;;;;;;4990241;28;20022;-34
2023/07/05 08:32:40;;;;;;;20.77;7.63;;;;;;;;;;4987509;28;20088;-36
2023/07/05 08:35:06;;;;;;;15.27;7.47;;;;;;;;;;4986325;28;20628;-34
2023/07/05 08:37:31;;;;;;;13.82;6.90;;;;;;;;;;4986427;28;20046;-34
2023/07/05 08:39:56;;;;;;;15.57;7.80;;;;;;;;;;4988710;28;20034;-34
2023/07/05 08:42:27;;;;;;;20.50;7.43;;;;;;;;;;4992003;28;20053;-34
2023/07/05 08:44:57;;;;;;;13.77;7.50;;;;;;;;;;4987337;28;20428;-36
2023/07/05 08:47:28;;;;;;;14.77;7.13;;;;;;;;;;4992054;28;20027;-35
2023/07/05 08:50:26;;;;;;;22.03;7.20;;;;;;;;;;4988404;28;20584;-35
2023/07/05 08:52:55;;;;;;;16.48;7.43;;;;;;;;;;4962700;28;20520;-37
2023/07/05 08:55:24;;;;;;;18.35;9.40;;;;;;;;;;4984422;28;20397;-35
2023/07/05 08:57:53;;;;;;;14.50;8.20;;;;;;;;;;4991469;28;20049;-36
2023/07/05 09:00:24;;;;;;;21.23;8.38;;;;;;;;;;4988378;28;20046;-37
2023/07/05 09:02:49;;;;;;;20.85;8.55;;;;;;;;;;4991169;28;20030;-37
2023/07/05 09:05:16;;;;;;;19.40;8.55;;;;;;;;;;5001696;28;20093;-41
2023/07/05 09:07:44;;;;;;;16.75;9.10;;;;;;;;;;4991775;28;20026;-39
2023/07/05 09:10:15;;;;;;;22.45;9.80;;;;;;;;;;4992155;28;20594;-41
2023/07/05 09:12:52;;;;;;;16.15;9.55;;;;;;;;;;4993113;28;20029;-36
2023/07/05 09:15:23;;;;;;;18.13;8.88;;;;;;;;;;4990066;28;20109;-37
2023/07/05 09:17:51;;;;;;;21.30;10.23;;;;;;;;;;4989721;28;20050;-36
2023/07/05 09:20:24;;;;;;;17.02;7.93;;;;;;;;;;4990387;28;20023;-37
2023/07/05 09:22:51;;;;;;;13.98;7.72;;;;;;;;;;4989319;28;20602;-37
2023/07/05 09:25:18;;;;;;;17.75;9.68;;;;;;;;;;4991258;28;20440;-36
2023/07/05 09:27:49;;;;;;;18.40;8.05;;;;;;;;;;4990933;28;20034;-36
2023/07/05 09:30:24;;;;;;;17.38;9.60;;;;;;;;;;4993373;28;20072;-35
2023/07/05 09:32:59;;;;;;;19.92;9.90;;;;;;;;;;4988663;28;20054;-37
2023/07/05 09:35:26;;;;;;;19.92;8.95;;;;;;;;;;4976490;28;20022;-35
2023/07/05 09:37:55;;;;;;;20.55;10.68;;;;;;;;;;4987505;28;20045;-36
2023/07/05 09:40:23;;;;;;;20.05;10.38;;;;;;;;;;4986499;28;20029;-36
2023/07/05 09:42:48;;;;;;;26.42;10.63;;;;;;;;;;4989259;28;20118;-36
2023/07/05 09:45:15;;;;;;;24.37;10.83;;;;;;;;;;4992157;28;20104;-36
2023/07/05 09:47:41;;;;;;;18.00;10.73;;;;;;;;;;4989996;28;20022;-37
2023/07/05 09:50:10;;;;;;;24.90;11.85;;;;;;;;;;4992696;28;20076;-37
2023/07/05 09:52:36;;;;;;;20.40;10.32;;;;;;;;;;4988904;28;20492;-38
2023/07/05 09:55:02;;;;;;;21.75;11.40;;;;;;;;;;4993278;28;20081;-37
2023/07/05 09:57:28;;;;;;;19.75;10.35;;;;;;;;;;4991093;28;20026;-35
2023/07/05 09:59:53;;;;;;;23.95;11.43;;;;;;;;;;4990390;28;20443;-37
2023/07/05 10:02:22;;;;;;;22.48;12.15;;;;;;;;;;4991104;28;20053;-37
2023/07/05 10:04:49;;;;;;;18.33;11.40;;;;;;;;;;4979082;28;20080;-39
2023/07/05 10:07:19;;;;;;;21.27;11.05;;;;;;;;;;4989705;28;20031;-37
2023/07/05 10:10:01;;;;;;;21.13;11.77;;;;;;;;;;4984877;28;20042;-35
2023/07/05 10:12:36;;;;;;;25.33;11.32;;;;;;;;;;4988496;28;20026;-36
2023/07/05 10:15:15;;;;;;;20.05;10.85;;;;;;;;;;4988454;28;20038;-35
2023/07/05 10:17:42;;;;;;;21.80;11.63;;;;;;;;;;5000685;28;20081;-36
2023/07/05 10:20:16;;;;;;;21.38;12.60;;;;;;;;;;4984214;28;20097;-38
2023/07/05 10:22:42;;;;;;;22.30;11.23;;;;;;;;;;4987371;28;20452;-38
2023/07/05 10:25:18;;;;;;;20.15;10.65;;;;;;;;;;4974351;28;20497;-37
2023/07/05 10:27:44;;;;;;;20.50;10.75;;;;;;;;;;4945718;28;20041;-37
2023/07/05 10:30:13;;;;;;;19.27;11.27;;;;;;;;;;4960203;28;26417;-36
2023/07/05 10:32:43;;;;;;;21.38;11.13;;;;;;;;;;4978232;28;20074;-38
2023/07/05 10:35:23;;;;;;;29.52;14.57;;;;;;;;;;4975523;28;20026;-38
2023/07/05 10:37:49;;;;;;;25.52;13.65;;;;;;;;;;4978942;28;20030;-38
2023/07/05 10:40:15;;;;;;;19.83;11.20;;;;;;;;;;4975036;28;20033;-37
2023/07/05 10:42:46;;;;;;;24.85;11.30;;;;;;;;;;4979367;28;20054;-36
2023/07/05 10:45:14;;;;;;;18.75;10.55;;;;;;;;;;4976559;28;20036;-37
2023/07/05 10:47:39;;;;;;;23.08;11.00;;;;;;;;;;4980532;28;20030;-38
2023/07/05 10:50:06;;;;;;;17.35;10.43;;;;;;;;;;4981318;28;22698;-38
2023/07/05 10:52:33;;;;;;;17.40;8.73;;;;;;;;;;4981087;28;21763;-37
2023/07/05 10:54:58;;;;;;;18.70;9.82;;;;;;;;;;4983632;28;20034;-37
2023/07/05 10:57:41;;;;;;;17.43;9.93;;;;;;;;;;4976479;28;20345;-36
2023/07/05 11:00:28;;;;;;;17.17;8.77;;;;;;;;;;4975167;28;20033;-38
2023/07/05 11:03:11;;;;;;;13.32;8.23;;;;;;;;;;4983877;28;20081;-37
2023/07/05 11:05:50;;;;;;;16.70;8.13;;;;;;;;;;4980074;28;20034;-38
2023/07/05 11:08:17;;;;;;;17.13;8.68;;;;;;;;;;4981322;28;20030;-38
2023/07/05 11:10:43;;;;;;;17.50;9.55;;;;;;;;;;4983267;28;20727;-37
2023/07/05 11:13:13;;;;;;;13.25;7.65;;;;;;;;;;4985515;28;20042;-38
2023/07/05 11:15:38;;;;;;;14.15;7.30;;;;;;;;;;4984890;28;20130;-38
2023/07/05 11:18:06;;;;;;;15.23;7.70;;;;;;;;;;4965176;28;20041;-39
2023/07/05 11:20:34;;;;;;;11.30;6.18;;;;;;;;;;4980581;28;20025;-40
2023/07/05 11:22:59;;;;;;;11.30;6.50;;;;;;;;;;4976860;28;20392;-35
2023/07/05 11:25:44;;;;;;;12.50;6.60;;;;;;;;;;4978365;28;20037;-37
2023/07/05 11:28:29;;;;;;;11.73;5.97;;;;;;;;;;4972154;28;20033;-38
2023/07/05 11:30:55;;;;;;;11.85;5.63;;;;;;;;;;4985642;28;20046;-36
2023/07/05 11:33:22;;;;;;;13.32;5.97;;;;;;;;;;4986569;28;20567;-35
2023/07/05 11:35:54;;;;;;;9.27;4.97;;;;;;;;;;4978090;28;20034;-38
2023/07/05 11:38:35;;;;;;;11.57;6.20;;;;;;;;;;4982241;28;20030;-36
2023/07/05 11:41:00;;;;;;;9.02;5.28;;;;;;;;;;4983057;28;20030;-36
2023/07/05 11:43:31;;;;;;;15.68;6.65;;;;;;;;;;4987034;28;20034;-36
2023/07/05 11:45:56;;;;;;;11.43;6.33;;;;;;;;;;4977685;28;20034;-37
2023/07/05 11:48:38;;;;;;;14.70;5.40;;;;;;;;;;4984521;28;20038;-37
2023/07/05 11:51:06;;;;;;;12.80;5.25;;;;;;;;;;4978122;28;20109;-34
2023/07/05 11:53:32;;;;;;;11.80;6.15;;;;;;;;;;4971306;28;20076;-36
2023/07/05 11:55:59;;;;;;;14.25;6.30;;;;;;;;;;4982205;28;20381;-37
2023/07/05 11:58:27;;;;;;;10.88;5.45;;;;;;;;;;4986049;28;20022;-37
2023/07/05 12:01:00;;;;;;;4.50;3.08;;;;;;;;;;4989554;28;20030;-37
2023/07/05 12:03:28;;;;;;;9.02;4.80;;;;;;;;;;4987555;28;20026;-36
2023/07/05 12:05:55;;;;;;;8.82;4.38;;;;;;;;;;4990404;28;20102;-36
2023/07/05 12:08:26;;;;;;;8.80;4.05;;;;;;;;;;4971306;28;21810;-40
2023/07/05 12:10:56;;;;;;;8.70;4.63;;;;;;;;;;4984061;28;20528;-36
2023/07/05 12:13:22;;;;;;;6.65;3.70;;;;;;;;;;4985687;28;20050;-37
2023/07/05 12:15:47;;;;;;;10.88;5.68;;;;;;;;;;4983617;28;20054;-35
2023/07/05 12:18:14;;;;;;;7.22;4.03;;;;;;;;;;4988507;28;20124;-36
2023/07/05 12:20:41;;;;;;;8.38;3.38;;;;;;;;;;4988140;28;20436;-35
2023/07/05 12:23:11;;;;;;;5.78;3.00;;;;;;;;;;4990171;28;20477;-34
2023/07/05 12:25:36;;;;;;;6.13;2.92;;;;;;;;;;4978276;28;20097;-37
2023/07/05 12:28:02;;;;;;;6.10;2.50;;;;;;;;;;4981085;28;20054;-36
2023/07/05 12:30:28;;;;;;;6.07;2.55;;;;;;;;;;4984797;28;20023;-35
2023/07/05 12:32:55;;;;;;;6.28;2.65;;;;;;;;;;4980296;28;20439;-36
2023/07/05 12:35:25;;;;;;;5.70;2.55;;;;;;;;;;4987690;28;20061;-37
2023/07/05 12:37:51;;;;;;;6.63;3.13;;;;;;;;;;4984776;28;20022;-35
2023/07/05 12:40:25;;;;;;;4.65;2.67;;;;;;;;;;4981346;28;21156;-37
2023/07/05 12:42:53;;;;;;;5.75;2.85;;;;;;;;;;4985299;28;20022;-36
2023/07/05 12:45:23;;;;;;;7.45;2.65;;;;;;;;;;4987071;28;20022;-35
2023/07/05 12:47:49;;;;;;;7.50;2.53;;;;;;;;;;4975488;28;20050;-37
2023/07/05 12:50:19;;;;;;;5.50;2.35;;;;;;;;;;4983689;28;20117;-37
2023/07/05 12:52:47;;;;;;;7.28;2.42;;;;;;;;;;4983186;28;20161;-35
2023/07/05 12:55:25;;;;;;;4.95;2.25;;;;;;;;;;4984268;28;20040;-37
2023/07/05 12:57:52;;;;;;;5.45;2.47;;;;;;;;;;4967349;28;20132;-35
2023/07/05 13:00:20;;;;;;;5.28;2.72;;;;;;;;;;4981327;28;20037;-37
2023/07/05 13:02:45;;;;;;;3.92;1.90;;;;;;;;;;4981444;28;20477;-37
2023/07/05 13:05:10;;;;;;;5.63;2.38;;;;;;;;;;4984975;28;20512;-37
2023/07/05 13:07:39;;;;;;;5.57;2.28;;;;;;;;;;4980020;28;20485;-38
2023/07/05 13:10:08;;;;;;;4.03;1.88;;;;;;;;;;4979179;28;20018;-36
2023/07/05 13:12:52;;;;;;;2.83;1.40;;;;;;;;;;4983394;28;20031;-37
2023/07/05 13:15:17;;;;;;;5.78;2.33;;;;;;;;;;4980078;28;20076;-36
2023/07/05 13:17:43;;;;;;;6.88;2.75;;;;;;;;;;4967286;28;20121;-37
2023/07/05 13:20:12;;;;;;;4.28;2.10;;;;;;;;;;4981135;28;20030;-35
2023/07/05 13:22:40;;;;;;;6.10;2.58;;;;;;;;;;4980311;28;20030;-37
2023/07/05 13:25:24;;;;;;;8.00;2.50;;;;;;;;;;4984274;28;20026;-38
2023/07/05 13:27:52;;;;;;;5.35;2.63;;;;;;;;;;4975435;28;21278;-38
2023/07/05 13:30:18;;;;;;;5.90;2.08;;;;;;;;;;4970604;28;20035;-38
2023/07/05 13:32:45;;;;;;;5.32;2.22;;;;;;;;;;4981722;28;20054;-36
2023/07/05 13:35:11;;;;;;;8.18;3.25;;;;;;;;;;4980908;28;20034;-36
2023/07/05 13:37:37;;;;;;;4.47;2.08;;;;;;;;;;4983298;28;20073;-37
2023/07/05 13:40:10;;;;;;;5.05;2.28;;;;;;;;;;4981996;28;20030;-37
2023/07/05 13:42:36;;;;;;;6.00;1.95;;;;;;;;;;4987435;28;20393;-38
2023/07/05 13:45:03;;;;;;;5.65;1.98;;;;;;;;;;4983897;28;20068;-37
2023/07/05 13:47:29;;;;;;;7.70;2.58;;;;;;;;;;4975510;28;20041;-37
2023/07/05 13:49:54;;;;;;;6.22;2.78;;;;;;;;;;4979339;28;20026;-36
2023/07/05 13:52:19;;;;;;;6.90;2.97;;;;;;;;;;4984103;28;20476;-37
2023/07/05 13:54:47;;;;;;;6.55;2.40;;;;;;;;;;4980473;28;20018;-38
2023/07/05 13:57:16;;;;;;;4.82;2.17;;;;;;;;;;4984217;28;20029;-37
2023/07/05 13:59:41;;;;;;;3.95;1.88;;;;;;;;;;4984881;28;20026;-36
2023/07/05 14:02:25;;;;;;;3.88;1.92;;;;;;;;;;4983589;28;20035;-37
2023/07/05 14:04:51;;;;;;;3.85;1.80;;;;;;;;;;4981041;28;20034;-37
2023/07/05 14:07:16;;;;;;;4.30;2.30;;;;;;;;;;4977887;28;20183;-36
2023/07/05 14:09:41;;;;;;;7.70;1.90;;;;;;;;;;4979250;28;20058;-38
2023/07/05 14:12:10;;;;;;;4.00;2.07;;;;;;;;;;4979052;28;20037;-35
2023/07/05 14:14:35;;;;;;;4.65;1.88;;;;;;;;;;4983850;28;20030;-36
2023/07/05 14:17:00;;;;;;;5.63;2.20;;;;;;;;;;4988113;28;20026;-38
2023/07/05 14:19:25;;;;;;;4.73;2.23;;;;;;;;;;4976145;28;20030;-38
2023/07/05 14:21:51;;;;;;;6.43;2.20;;;;;;;;;;4980211;28;20504;-37
2023/07/05 14:24:16;;;;;;;5.88;1.48;;;;;;;;;;4983706;28;20030;-36
2023/07/05 14:26:41;;;;;;;4.05;1.80;;;;;;;;;;4977279;28;20062;-37
2023/07/05 14:29:07;;;;;;;3.37;1.43;;;;;;;;;;4974512;28;20049;-37
2023/07/05 14:31:32;;;;;;;6.55;1.58;;;;;;;;;;4974735;28;20353;-37
2023/07/05 14:33:58;;;;;;;4.00;1.60;;;;;;;;;;4980688;28;20462;-37
2023/07/05 14:36:23;;;;;;;3.47;1.85;;;;;;;;;;4981091;28;20034;-37
2023/07/05 14:38:49;;;;;;;6.20;1.90;;;;;;;;;;4979189;28;20405;-36